createdAt,value
2022-09-10T00:00:58.473Z,93013.06
2022-09-10T00:02:30.242Z,93018.53
2022-09-10T00:04:02.314Z,93020.09
2022-09-10T00:05:46.062Z,93027.22
2022-09-10T00:07:18.819Z,93015.13
2022-09-10T00:08:50.395Z,93021.06
2022-09-10T00:10:22.154Z,93020.22
2022-09-10T00:11:54.226Z,93025.69
2022-09-10T00:13:25.741Z,93024.16
2022-09-10T00:14:57.364Z,93023.78
2022-09-10T00:16:29.753Z,93017.50
2022-09-10T00:18:01.337Z,93023.34
2022-09-10T00:19:32.831Z,93022.22
2022-09-10T00:21:12.105Z,93018.75
2022-09-10T00:22:44.131Z,93022.69
2022-09-10T00:24:15.669Z,93013.72
2022-09-10T00:25:48.332Z,93017.59
2022-09-10T00:27:19.884Z,93014.13
2022-09-10T00:28:51.920Z,93016.53
2022-09-10T00:30:23.487Z,93013.88
2022-09-10T00:31:55.151Z,93017.84
2022-09-10T00:33:26.679Z,93017.53
2022-09-10T00:35:01.352Z,93029.72
2022-09-10T00:36:34.977Z,93023.81
2022-09-10T00:38:06.932Z,93023.81
2022-09-10T00:39:38.525Z,93026.16
2022-09-10T00:41:10.025Z,93020.41
2022-09-10T00:42:44.300Z,93019.97
2022-09-10T00:44:35.707Z,93025.84
2022-09-10T00:46:07.275Z,93023.88
2022-09-10T00:47:38.906Z,93023.09
2022-09-10T00:49:21.435Z,93028.16
2022-09-10T00:50:53.015Z,93027.03
2022-09-10T00:52:24.809Z,93018.44
2022-09-10T00:53:56.376Z,93023.91
2022-09-10T00:55:28.054Z,93019.59
2022-09-10T00:57:00.115Z,93022.34
2022-09-10T00:58:31.705Z,93015.28
2022-09-10T01:00:05.421Z,93017.25
2022-09-10T01:01:37.423Z,93020.38
2022-09-10T01:03:11.245Z,93010.22
2022-09-10T01:04:43.118Z,93012.50
2022-09-10T01:06:14.762Z,93004.31
2022-09-10T01:07:47.108Z,93000.84
2022-09-10T01:09:19.336Z,92994.28
2022-09-10T01:10:59.867Z,92999.75
2022-09-10T01:12:50.563Z,92999.00
2022-09-10T01:14:41.169Z,92997.44
2022-09-10T01:16:24.880Z,92997.44
2022-09-10T01:18:08.929Z,92994.28
2022-09-10T01:20:00.676Z,92988.03
2022-09-10T01:21:55.411Z,92984.06
2022-09-10T01:23:37.724Z,92986.41
2022-09-10T01:25:15.234Z,92981.66
2022-09-10T01:26:59.113Z,92985.91
2022-09-10T01:28:31.446Z,92974.91
2022-09-10T01:30:07.854Z,92972.97
2022-09-10T01:32:02.619Z,92977.28
2022-09-10T01:33:35.035Z,92976.63
2022-09-10T01:35:15.251Z,92967.72
2022-09-10T01:36:48.497Z,92966.22
2022-09-10T01:38:27.236Z,92963.84
2022-09-10T01:39:59.285Z,92969.69
2022-09-10T01:41:30.934Z,92975.47
2022-09-10T01:43:03.370Z,92980.94
2022-09-10T01:44:47.115Z,92971.03
2022-09-10T01:46:23.673Z,92980.75
2022-09-10T01:48:19.518Z,92984.25
2022-09-10T01:52:45.187Z,92979.59
2022-09-10T01:54:26.564Z,92990.94
2022-09-10T01:56:19.734Z,92983.97
2022-09-10T01:57:55.511Z,92986.69
2022-09-10T01:59:35.906Z,92999.19
2022-09-10T02:01:07.460Z,92995.25
2022-09-10T02:02:42.173Z,92999.13
2022-09-10T02:04:14.966Z,93002.25
2022-09-10T02:05:47.095Z,93000.28
2022-09-10T02:07:19.270Z,92996.38
2022-09-10T02:08:52.472Z,93002.59
2022-09-10T02:10:24.056Z,93004.19
2022-09-10T02:11:56.557Z,93004.59
2022-09-10T02:13:29.811Z,93007.72
2022-09-10T02:15:01.383Z,93004.94
2022-09-10T02:16:37.837Z,93010.34
2022-09-10T02:18:09.659Z,92995.09
2022-09-10T02:19:45.044Z,92997.41
2022-09-10T02:21:16.647Z,92997.38
2022-09-10T02:22:49.214Z,92982.94
2022-09-10T02:24:21.354Z,92993.06
2022-09-10T02:25:53.872Z,92994.59
2022-09-10T02:27:25.383Z,92988.63
2022-09-10T02:28:57.089Z,92995.66
2022-09-10T02:30:29.629Z,92993.28
2022-09-10T02:32:01.886Z,92986.66
2022-09-10T02:33:34.263Z,93001.13
2022-09-10T02:35:06.234Z,92999.97
2022-09-10T02:36:38.041Z,93001.50
2022-09-10T02:38:09.905Z,93007.75
2022-09-10T02:39:41.778Z,93010.50
2022-09-10T02:41:14.206Z,93012.44
2022-09-10T02:42:46.887Z,93010.09
2022-09-10T02:44:18.883Z,93010.88
2022-09-10T02:45:51.085Z,93009.66
2022-09-10T02:47:23.146Z,93011.97
2022-09-10T02:48:55.286Z,93006.94
2022-09-10T02:50:26.808Z,93007.31
2022-09-10T02:51:58.298Z,93006.88
2022-09-10T02:53:31.753Z,93014.63
2022-09-10T02:55:03.466Z,93017.34
2022-09-10T02:56:35.155Z,93013.81
2022-09-10T02:58:07.303Z,93018.09
2022-09-10T02:59:38.867Z,93015.75
2022-09-10T03:01:11.388Z,93013.81
2022-09-10T03:02:43.431Z,93017.34
2022-09-10T03:04:15.214Z,93014.53
2022-09-10T03:05:47.568Z,93005.91
2022-09-10T03:07:20.435Z,93005.13
2022-09-10T03:08:52.058Z,93005.84
2022-09-10T03:10:24.622Z,93000.00
2022-09-10T03:11:56.957Z,93004.25
2022-09-10T03:13:28.596Z,93006.53
2022-09-10T03:15:00.117Z,92994.81
2022-09-10T03:16:31.830Z,92986.22
2022-09-10T03:18:03.448Z,92976.41
2022-09-10T03:19:35.249Z,92977.56
2022-09-10T03:21:10.018Z,92979.84
2022-09-10T03:22:41.719Z,92979.44
2022-09-10T03:24:15.322Z,92980.94
2022-09-10T03:25:49.769Z,92970.38
2022-09-10T03:27:22.903Z,92959.84
2022-09-10T03:28:55.012Z,92964.53
2022-09-10T03:30:26.842Z,92950.44
2022-09-10T03:31:58.401Z,92953.09
2022-09-10T03:33:29.893Z,92941.75
2022-09-10T03:35:01.339Z,92923.00
2022-09-10T03:36:32.824Z,92915.22
2022-09-10T03:38:04.399Z,92895.69
2022-09-10T03:39:36.077Z,92903.88
2022-09-10T03:41:07.668Z,92914.88
2022-09-10T03:42:39.395Z,92910.66
2022-09-10T03:44:11.411Z,92910.72
2022-09-10T03:45:42.945Z,92913.91
2022-09-10T03:47:14.575Z,92928.00
2022-09-10T03:48:46.081Z,92942.47
2022-09-10T03:50:17.672Z,92952.28
2022-09-10T03:51:49.206Z,92957.47
2022-09-10T03:53:20.989Z,92962.53
2022-09-10T03:54:52.573Z,92962.22
2022-09-10T03:56:24.243Z,92973.22
2022-09-10T03:57:55.816Z,92975.50
2022-09-10T03:59:27.337Z,92985.22
2022-09-10T04:00:59.165Z,92992.19
2022-09-10T04:02:30.975Z,92984.38
2022-09-10T04:04:03.232Z,92983.19
2022-09-10T04:05:35.184Z,92987.84
2022-09-10T04:07:07.242Z,92996.47
2022-09-10T04:08:39.208Z,92988.28
2022-09-10T04:10:11.046Z,92991.38
2022-09-10T04:11:42.590Z,92992.88
2022-09-10T04:13:14.191Z,92994.03
2022-09-10T04:14:46.953Z,92989.31
2022-09-10T04:16:18.644Z,92996.31
2022-09-10T04:17:53.057Z,92991.50
2022-09-10T04:19:24.780Z,92995.34
2022-09-10T04:20:59.113Z,92990.88
2022-09-10T04:22:30.684Z,92992.75
2022-09-10T04:24:03.193Z,92990.41
2022-09-10T04:25:34.820Z,92993.56
2022-09-10T04:27:06.657Z,92989.28
2022-09-10T04:28:38.589Z,92991.59
2022-09-10T04:30:10.772Z,92983.34
2022-09-10T04:31:42.621Z,92979.78
2022-09-10T04:33:14.343Z,92976.22
2022-09-10T04:34:46.389Z,92974.19
2022-09-10T04:36:17.923Z,92975.34
2022-09-10T04:37:49.557Z,92978.50
2022-09-10T04:39:21.218Z,92966.00
2022-09-10T04:40:52.898Z,92968.03
2022-09-10T04:42:24.762Z,92965.28
2022-09-10T04:43:56.577Z,92968.03
2022-09-10T04:45:28.634Z,92956.31
2022-09-10T04:47:00.563Z,92958.66
2022-09-10T04:48:32.338Z,92962.19
2022-09-10T04:50:04.209Z,92958.28
2022-09-10T04:51:35.954Z,92960.31
2022-09-10T04:53:08.096Z,92957.66
2022-09-10T04:54:39.771Z,92953.00
2022-09-10T04:56:11.564Z,92958.19
2022-09-10T04:57:43.162Z,92960.22
2022-09-10T04:59:14.674Z,92966.50
2022-09-10T05:00:46.368Z,92975.97
2022-09-10T05:02:18.025Z,92983.91
2022-09-10T05:03:49.654Z,92987.09
2022-09-10T05:05:21.162Z,92988.31
2022-09-10T05:06:53.655Z,92990.31
2022-09-10T05:08:25.297Z,92981.78
2022-09-10T05:09:56.970Z,92985.72
2022-09-10T05:11:29.073Z,92990.41
2022-09-10T05:13:00.953Z,92989.28
2022-09-10T05:14:34.063Z,92995.94
2022-09-10T05:16:06.387Z,92993.22
2022-09-10T05:17:38.049Z,93004.56
2022-09-10T05:19:17.803Z,93001.13
2022-09-10T05:20:49.502Z,92998.38
2022-09-10T05:22:21.981Z,93002.28
2022-09-10T05:23:53.654Z,93001.50
2022-09-10T05:25:25.247Z,93011.28
2022-09-10T05:26:57.092Z,93002.72
2022-09-10T05:28:28.759Z,93007.03
2022-09-10T05:30:00.367Z,92993.00
2022-09-10T05:31:32.487Z,92989.91
2022-09-10T05:33:04.291Z,92992.28
2022-09-10T05:34:35.898Z,92986.13
2022-09-10T05:36:09.362Z,92982.28
2022-09-10T05:37:40.988Z,92981.13
2022-09-10T05:39:12.552Z,92979.56
2022-09-10T05:40:44.400Z,92973.72
2022-09-10T05:42:16.386Z,92973.72
2022-09-10T05:43:48.295Z,92960.06
2022-09-10T05:45:20.403Z,92959.31
2022-09-10T05:46:52.319Z,92945.69
2022-09-10T05:48:23.880Z,92948.16
2022-09-10T05:49:56.501Z,92934.09
2022-09-10T05:51:30.044Z,92942.75
2022-09-10T05:53:01.636Z,92925.63
2022-09-10T05:54:33.281Z,92925.63
2022-09-10T05:56:05.921Z,92928.03
2022-09-10T05:57:37.745Z,92930.06
2022-09-10T05:59:10.846Z,92932.13
2022-09-10T06:00:43.337Z,92935.34
2022-09-10T06:02:23.226Z,92942.47
2022-09-10T06:03:56.357Z,92945.69
2022-09-10T06:05:28.915Z,92955.53
2022-09-10T06:07:02.167Z,92956.75
2022-09-10T06:08:33.814Z,92963.50
2022-09-10T06:10:05.768Z,92957.69
2022-09-10T06:11:37.554Z,92963.25
2022-09-10T06:13:09.333Z,92958.97
2022-09-10T06:14:40.863Z,92967.28
2022-09-10T06:16:12.724Z,92972.44
2022-09-10T06:17:45.076Z,92975.66
2022-09-10T06:19:16.877Z,92974.53
2022-09-10T06:20:48.431Z,92975.69
2022-09-10T06:22:20.079Z,92979.63
2022-09-10T06:23:54.870Z,92981.16
2022-09-10T06:25:26.385Z,92970.53
2022-09-10T06:26:58.217Z,92973.63
2022-09-10T06:28:30.096Z,92981.47
2022-09-10T06:30:01.685Z,92986.53
2022-09-10T06:31:34.831Z,92993.19
2022-09-10T06:33:06.515Z,92993.97
2022-09-10T06:34:38.682Z,92988.91
2022-09-10T06:36:11.438Z,92991.59
2022-09-10T06:37:43.090Z,92994.75
2022-09-10T06:39:14.671Z,92998.34
2022-09-10T06:40:54.770Z,92997.22
2022-09-10T06:42:26.336Z,92993.41
2022-09-10T06:43:57.959Z,92995.88
2022-09-10T06:45:29.547Z,93001.41
2022-09-10T06:47:45.923Z,92997.59
2022-09-10T06:48:54.053Z,92998.50
2022-09-10T06:50:26.652Z,92997.38
2022-09-10T06:51:58.265Z,93001.38
2022-09-10T06:53:29.919Z,93003.38
2022-09-10T06:55:01.724Z,93001.84
2022-09-10T06:56:33.631Z,93008.50
2022-09-10T06:58:05.393Z,93004.19
2022-09-10T06:59:37.005Z,92997.91
2022-09-10T07:01:15.954Z,93000.34
2022-09-10T07:02:49.473Z,93000.03
2022-09-10T07:04:21.114Z,92988.75
2022-09-10T07:05:55.991Z,92989.22
2022-09-10T07:07:28.443Z,92986.13
2022-09-10T07:09:00.105Z,92988.50
2022-09-10T07:10:32.397Z,92991.28
2022-09-10T07:12:05.268Z,92994.81
2022-09-10T07:13:37.699Z,92988.13
2022-09-10T07:15:09.868Z,92991.66
2022-09-10T07:16:45.796Z,92987.75
2022-09-10T07:18:18.169Z,92987.34
2022-09-10T07:19:50.007Z,92985.38
2022-09-10T07:21:21.906Z,92996.00
2022-09-10T07:22:53.612Z,92991.28
2022-09-10T07:24:25.467Z,92994.81
2022-09-10T07:26:03.792Z,92992.06
2022-09-10T07:27:35.414Z,93005.03
2022-09-10T07:29:07.968Z,92994.44
2022-09-10T07:30:43.045Z,93000.72
2022-09-10T07:32:15.341Z,93007.78
2022-09-10T07:33:47.503Z,93002.28
2022-09-10T07:35:19.094Z,93018.00
2022-09-10T07:36:51.067Z,93015.28
2022-09-10T07:38:22.924Z,93007.06
2022-09-10T07:39:54.906Z,93006.25
2022-09-10T07:41:30.206Z,93015.72
2022-09-10T07:43:01.938Z,93007.06
2022-09-10T07:44:33.539Z,93014.13
2022-09-10T07:46:06.433Z,93009.38
2022-09-10T07:47:38.823Z,93014.50
2022-09-10T07:49:11.082Z,93009.00
2022-09-10T07:50:42.705Z,93006.25
2022-09-10T07:52:14.928Z,93005.84
2022-09-10T07:53:50.467Z,93009.38
2022-09-10T07:55:23.623Z,93018.41
2022-09-10T07:56:55.296Z,93014.47
2022-09-10T07:58:28.381Z,93011.72
2022-09-10T08:00:00.994Z,93015.66
2022-09-10T08:01:33.261Z,93016.41
2022-09-10T08:03:04.864Z,93007.00
2022-09-10T08:04:37.747Z,93005.00
2022-09-10T08:06:09.766Z,93008.50
2022-09-10T08:07:41.645Z,93001.00
2022-09-10T08:09:15.141Z,93006.44
2022-09-10T08:10:47.153Z,93011.56
2022-09-10T08:12:18.774Z,93008.75
2022-09-10T08:13:51.051Z,93014.66
2022-09-10T08:15:23.538Z,93008.38
2022-09-10T08:16:55.132Z,93007.19
2022-09-10T08:18:27.135Z,93004.81
2022-09-10T08:19:59.593Z,93007.59
2022-09-10T08:21:32.042Z,93000.53
2022-09-10T08:23:03.647Z,93002.13
2022-09-10T08:24:35.243Z,93003.28
2022-09-10T08:26:08.285Z,93002.84
2022-09-10T08:27:42.913Z,92999.72
2022-09-10T08:29:14.777Z,92997.72
2022-09-10T08:30:57.363Z,93000.06
2022-09-10T08:32:29.676Z,93005.97
2022-09-10T08:34:01.759Z,93006.31
2022-09-10T08:35:33.300Z,93003.53
2022-09-10T08:37:05.341Z,92998.09
2022-09-10T08:38:37.505Z,92997.25
2022-09-10T08:40:12.253Z,92997.25
2022-09-10T08:41:52.627Z,92993.25
2022-09-10T08:43:35.447Z,92989.69
2022-09-10T08:45:10.834Z,92994.41
2022-09-10T08:46:42.552Z,92997.13
2022-09-10T08:48:17.945Z,92993.53
2022-09-10T08:49:50.588Z,92990.88
2022-09-10T08:51:27.814Z,92992.41
2022-09-10T08:53:18.089Z,92999.88
2022-09-10T08:54:58.711Z,92990.47
2022-09-10T08:56:31.335Z,92988.44
2022-09-10T08:58:19.721Z,92983.72
2022-09-10T08:59:52.738Z,92991.19
2022-09-10T09:01:28.593Z,92990.78
2022-09-10T09:03:02.626Z,92988.38
2022-09-10T09:04:34.306Z,92990.72
2022-09-10T09:06:08.107Z,92989.91
2022-09-10T09:07:40.676Z,92986.78
2022-09-10T09:09:15.686Z,92979.78
2022-09-10T09:10:50.962Z,92978.72
2022-09-10T09:12:29.946Z,92976.03
2022-09-10T09:14:34.871Z,92976.03
2022-09-10T09:16:15.717Z,92974.09
2022-09-10T09:18:08.983Z,92969.75
2022-09-10T09:19:59.411Z,92973.25
2022-09-10T09:21:38.082Z,92973.63
2022-09-10T09:23:13.027Z,92961.47
2022-09-10T09:25:01.958Z,92961.09
2022-09-10T09:26:36.934Z,92963.91
2022-09-10T09:28:12.295Z,92959.19
2022-09-10T09:29:46.899Z,92952.94
2022-09-10T09:31:43.051Z,92960.75
2022-09-10T09:33:16.597Z,92950.47
2022-09-10T09:35:11.151Z,92942.91
2022-09-10T09:36:45.139Z,92942.00
2022-09-10T09:38:19.779Z,92942.34
2022-09-10T09:40:05.318Z,92944.59
2022-09-10T09:41:47.600Z,92935.78
2022-09-10T09:43:31.676Z,92935.72
2022-09-10T09:45:07.837Z,92924.97
2022-09-10T09:46:39.378Z,92934.38
2022-09-10T09:48:16.162Z,92935.13
2022-09-10T09:49:47.739Z,92916.09
2022-09-10T09:51:23.098Z,92925.03
2022-09-10T09:52:55.402Z,92929.59
2022-09-10T09:55:12.463Z,92926.28
2022-09-10T09:56:29.036Z,92916.69
2022-09-10T09:58:19.513Z,92914.47
2022-09-10T09:59:51.172Z,92908.13
2022-09-10T10:01:24.110Z,92899.97
2022-09-10T10:02:56.261Z,92904.94
2022-09-10T10:04:31.276Z,92893.66
2022-09-10T10:06:03.376Z,92893.53
2022-09-10T10:07:36.260Z,92889.44
2022-09-10T10:09:10.448Z,92888.97
2022-09-10T10:10:42.080Z,92886.13
2022-09-10T10:12:19.003Z,92886.06
2022-09-10T10:13:51.937Z,92892.09
2022-09-10T10:15:56.381Z,92890.22
2022-09-10T10:17:30.345Z,92875.94
2022-09-10T10:19:02.247Z,92875.94
2022-09-10T10:20:37.107Z,92877.22
2022-09-10T10:22:15.195Z,92877.00
2022-09-10T10:23:47.188Z,92870.28
2022-09-10T10:25:36.841Z,92885.06
2022-09-10T10:27:14.551Z,92883.72
2022-09-10T10:28:46.725Z,92880.50
2022-09-10T10:30:18.429Z,92877.50
2022-09-10T10:31:50.156Z,92877.97
2022-09-10T10:33:24.976Z,92871.50
2022-09-10T10:35:05.158Z,92870.81
2022-09-10T10:36:44.159Z,92866.06
2022-09-10T10:38:25.536Z,92864.00
2022-09-10T10:40:01.366Z,92864.50
2022-09-10T10:41:43.294Z,92868.63
2022-09-10T10:43:33.308Z,92853.44
2022-09-10T10:45:08.418Z,92866.81
2022-09-10T10:46:46.768Z,92856.75
2022-09-10T10:48:35.421Z,92864.34
2022-09-10T10:50:09.262Z,92872.00
2022-09-10T10:51:40.807Z,92861.53
2022-09-10T10:53:20.138Z,92861.22
2022-09-10T10:55:09.828Z,92853.44
2022-09-10T10:56:57.581Z,92851.13
2022-09-10T10:58:32.388Z,92843.44
2022-09-10T11:00:07.299Z,92850.75
2022-09-10T11:01:41.650Z,92844.34
2022-09-10T11:03:22.748Z,92849.16
2022-09-10T11:04:54.979Z,92840.97
2022-09-10T11:06:27.747Z,92841.72
2022-09-10T11:08:04.481Z,92849.59
2022-09-10T11:09:39.254Z,92844.53
2022-09-10T11:11:10.865Z,92843.34
2022-09-10T11:12:57.222Z,92839.16
2022-09-10T11:14:36.553Z,92828.75
2022-09-10T11:16:29.053Z,92833.81
2022-09-10T11:18:13.121Z,92825.22
2022-09-10T11:20:27.260Z,92830.22
2022-09-10T11:21:59.102Z,92818.69
2022-09-10T11:23:42.497Z,92824.44
2022-09-10T11:25:14.068Z,92827.78
2022-09-10T11:26:45.697Z,92818.56
2022-09-10T11:28:19.806Z,92816.44
2022-09-10T11:29:53.939Z,92813.56
2022-09-10T11:31:25.544Z,92818.38
2022-09-10T11:33:17.681Z,92810.56
2022-09-10T11:35:03.021Z,92815.16
2022-09-10T11:36:43.454Z,92813.91
2022-09-10T11:38:17.393Z,92813.03
2022-09-10T11:39:49.383Z,92802.16
2022-09-10T11:41:26.158Z,92809.03
2022-09-10T11:43:03.277Z,92802.75
2022-09-10T11:44:43.799Z,92799.75
2022-09-10T11:46:27.769Z,92803.69
2022-09-10T11:48:07.930Z,92794.50
2022-09-10T11:49:42.508Z,92797.25
2022-09-10T11:51:19.986Z,92801.44
2022-09-10T11:52:53.540Z,92801.84
2022-09-10T11:54:26.582Z,92797.91
2022-09-10T11:56:30.873Z,92793.16
2022-09-10T11:58:05.040Z,92791.38
2022-09-10T11:59:58.617Z,92791.53
2022-09-10T12:01:39.370Z,92787.91
2022-09-10T12:03:14.005Z,92783.69
2022-09-10T12:05:03.144Z,92788.97
2022-09-10T12:06:44.900Z,92786.19
2022-09-10T12:08:33.542Z,92781.78
2022-09-10T12:10:14.343Z,92779.28
2022-09-10T12:11:56.467Z,92783.09
2022-09-10T12:13:28.336Z,92781.31
2022-09-10T12:15:00.437Z,92786.44
2022-09-10T12:16:50.906Z,92786.44
2022-09-10T12:18:28.243Z,92783.22
2022-09-10T12:20:00.382Z,92781.66
2022-09-10T12:21:41.579Z,92774.38
2022-09-10T12:23:18.609Z,92776.81
2022-09-10T12:25:01.217Z,92785.38
2022-09-10T12:26:41.116Z,92768.88
2022-09-10T12:28:48.415Z,92770.66
2022-09-10T12:30:33.628Z,92761.78
2022-09-10T12:32:08.317Z,92753.31
2022-09-10T12:33:43.411Z,92750.03
2022-09-10T12:35:36.003Z,92745.81
2022-09-10T12:37:19.280Z,92739.69
2022-09-10T12:38:54.784Z,92739.06
2022-09-10T12:40:26.371Z,92739.59
2022-09-10T12:42:02.162Z,92742.25
2022-09-10T12:43:40.124Z,92736.03
2022-09-10T12:45:12.335Z,92734.47
2022-09-10T12:46:48.454Z,92732.13
2022-09-10T12:48:22.851Z,92730.56
2022-09-10T12:49:57.861Z,92730.28
2022-09-10T12:51:47.845Z,92738.53
2022-09-10T12:53:23.557Z,92730.66
2022-09-10T12:55:13.838Z,92740.63
2022-09-10T12:56:58.403Z,92742.63
2022-09-10T12:58:33.384Z,92737.16
2022-09-10T13:00:18.630Z,92739.91
2022-09-10T13:01:51.535Z,92743.38
2022-09-10T13:03:24.521Z,92741.50
2022-09-10T13:05:01.112Z,92738.38
2022-09-10T13:06:37.186Z,92743.69
2022-09-10T17:33:03.205Z,92759.66
2022-09-10T17:35:02.549Z,92763.97
2022-09-10T17:36:34.135Z,92760.44
2022-09-10T17:38:06.766Z,92773.41
2022-09-10T17:39:38.320Z,92767.91
2022-09-10T17:41:10.489Z,92773.78
2022-09-10T17:42:42.667Z,92777.31
2022-09-10T17:44:14.861Z,92785.59
2022-09-10T17:45:46.664Z,92792.66
2022-09-10T17:47:18.268Z,92789.13
2022-09-10T17:48:50.446Z,92786.38
2022-09-10T17:50:22.065Z,92795.03
2022-09-10T17:51:53.675Z,92789.16
2022-09-10T17:53:25.210Z,92790.72
2022-09-10T17:54:58.157Z,92785.25
2022-09-10T17:56:29.810Z,92794.28
2022-09-10T17:58:01.472Z,92794.28
2022-09-10T17:59:33.305Z,92799.78
2022-09-10T18:01:06.014Z,92793.91
2022-09-10T18:02:37.659Z,92802.94
2022-09-10T18:04:10.116Z,92793.91
2022-09-10T18:05:42.424Z,92798.97
2022-09-10T18:07:14.293Z,92803.72
2022-09-10T18:08:46.086Z,92795.06
2022-09-10T18:10:18.050Z,92798.22
2022-09-10T18:11:49.529Z,92791.94
2022-09-10T18:13:21.075Z,92808.03
2022-09-10T18:14:52.773Z,92807.63
2022-09-10T18:16:25.377Z,92799.00
2022-09-10T18:17:59.478Z,92799.00
2022-09-10T18:19:32.866Z,92800.59
2022-09-10T18:21:31.517Z,92803.72
2022-09-10T18:23:03.038Z,92808.03
2022-09-10T18:24:34.791Z,92810.41
2022-09-10T18:26:13.192Z,92810.00
2022-09-10T18:27:45.883Z,92810.41
2022-09-10T18:29:19.265Z,92811.19
2022-09-10T18:30:51.003Z,92806.50
2022-09-10T18:32:26.091Z,92806.06
2022-09-10T18:33:58.453Z,92817.03
2022-09-10T18:35:30.431Z,92819.38
2022-09-10T18:37:02.719Z,92818.22
2022-09-10T18:38:34.469Z,92816.66
2022-09-10T18:40:07.185Z,92822.53
2022-09-10T18:41:39.622Z,92820.16
2022-09-10T18:43:13.845Z,92814.69
2022-09-10T18:44:45.914Z,92824.47
2022-09-10T18:46:17.932Z,92819.41
2022-09-10T18:47:49.660Z,92821.72
2022-09-10T18:49:21.726Z,92822.91
2022-09-10T18:50:53.276Z,92828.41
2022-09-10T18:52:25.105Z,92820.56
2022-09-10T18:54:00.835Z,92822.50
2022-09-10T18:55:32.864Z,92832.69
2022-09-10T18:57:04.860Z,92835.44
2022-09-10T18:58:36.907Z,92841.31
2022-09-10T19:00:09.219Z,92844.44
2022-09-10T19:01:41.569Z,92844.44
2022-09-10T19:03:13.273Z,92844.44
2022-09-10T19:05:07.372Z,92851.88
2022-09-10T19:06:37.889Z,92854.19
2022-09-10T19:08:09.517Z,92857.25
2022-09-10T19:09:41.603Z,92850.56
2022-09-10T19:11:17.440Z,92852.47
2022-09-10T19:12:49.147Z,92852.84
2022-09-10T19:14:26.417Z,92863.00
2022-09-10T19:15:59.451Z,92857.13
2022-09-10T19:17:31.620Z,92860.63
2022-09-10T19:19:04.430Z,92854.75
2022-09-10T19:20:36.648Z,92862.94
2022-09-10T19:22:10.316Z,92860.59
2022-09-10T19:23:42.014Z,92861.38
2022-09-10T19:25:14.276Z,92854.69
2022-09-10T19:26:46.219Z,92853.50
2022-09-10T19:28:17.965Z,92853.88
2022-09-10T19:29:50.669Z,92857.75
2022-09-10T19:31:22.790Z,92853.78
2022-09-10T19:32:54.469Z,92855.75
2022-09-10T19:34:26.997Z,92854.91
2022-09-10T19:36:03.363Z,92856.09
2022-09-10T19:37:35.168Z,92856.47
2022-09-10T19:39:07.968Z,92854.84
2022-09-10T19:40:39.843Z,92850.91
2022-09-10T19:42:12.783Z,92853.22
2022-09-10T19:43:45.192Z,92858.66
2022-09-10T19:45:16.780Z,92850.41
2022-09-10T19:46:48.420Z,92844.94
2022-09-10T19:48:22.083Z,92840.25
2022-09-10T19:49:54.165Z,92840.97
2022-09-10T19:51:27.405Z,92842.09
2022-09-10T19:52:59.023Z,92846.00
2022-09-10T19:54:31.260Z,92855.38
2022-09-10T19:56:06.138Z,92854.56
2022-09-10T19:57:38.126Z,92853.00
2022-09-10T19:59:10.081Z,92851.03
2022-09-10T20:00:47.066Z,92849.03
2022-09-10T20:02:19.225Z,92849.81
2022-09-10T20:03:51.107Z,92855.31
2022-09-10T20:05:23.461Z,92858.00
2022-09-10T20:06:55.262Z,92854.47
2022-09-10T20:08:27.516Z,92859.56
2022-09-10T20:10:01.814Z,92859.25
2022-09-10T20:11:33.835Z,92848.28
2022-09-10T20:13:05.808Z,92853.31
2022-09-10T20:14:38.195Z,92845.47
2022-09-10T20:16:10.425Z,92849.72
2022-09-10T20:17:42.007Z,92853.59
2022-09-10T20:19:14.682Z,92861.50
2022-09-10T20:20:46.899Z,92868.56
2022-09-10T20:22:19.534Z,92863.13
2022-09-10T20:23:51.839Z,92868.94
2022-09-10T20:25:24.994Z,92870.47
2022-09-10T20:26:57.124Z,92868.44
2022-09-10T20:28:28.854Z,92875.50
2022-09-10T20:30:01.479Z,92872.72
2022-09-10T20:31:33.978Z,92881.69
2022-09-10T20:33:05.930Z,92884.81
2022-09-10T20:34:37.840Z,92886.34
2022-09-10T20:36:10.948Z,92888.66
2022-09-10T20:37:43.013Z,92887.41
2022-09-10T20:39:18.206Z,92880.28
2022-09-10T20:40:49.731Z,92889.97
2022-09-10T20:42:22.472Z,92902.47
2022-09-10T20:43:54.068Z,92898.13
2022-09-10T20:45:25.633Z,92897.28
2022-09-10T20:46:57.296Z,92898.84
2022-09-10T20:48:28.931Z,92901.03
2022-09-10T20:50:02.171Z,92909.91
2022-09-10T20:51:35.236Z,92914.56
2022-09-10T20:53:07.767Z,92919.59
2022-09-10T20:54:39.439Z,92919.94
2022-09-10T20:56:12.336Z,92919.94
2022-09-10T20:57:45.057Z,92913.00
2022-09-10T20:59:16.810Z,92920.81
2022-09-10T21:00:48.503Z,92914.16
2022-09-10T21:02:20.207Z,92928.63
2022-09-10T21:03:55.121Z,92923.16
2022-09-10T21:05:28.378Z,92915.34
2022-09-10T21:06:59.907Z,92913.00
2022-09-10T21:08:31.866Z,92925.41
2022-09-10T21:10:03.617Z,92921.09
2022-09-10T21:11:35.252Z,92918.38
2022-09-10T21:13:08.989Z,92915.22
2022-09-10T21:14:40.574Z,92917.59
2022-09-10T21:16:13.000Z,92917.16
2022-09-10T21:17:45.183Z,92920.69
2022-09-10T21:19:16.888Z,92916.34
2022-09-10T21:20:48.523Z,92914.34
2022-09-10T21:22:20.452Z,92913.50
2022-09-10T21:23:52.711Z,92915.44
2022-09-10T21:25:26.501Z,92925.50
2022-09-10T21:26:58.211Z,92923.56
2022-09-10T21:28:30.273Z,92922.34
2022-09-10T21:30:04.097Z,92935.22
2022-09-10T21:31:36.132Z,92927.75
2022-09-10T21:33:07.823Z,92925.00
2022-09-10T21:34:40.462Z,92926.09
2022-09-10T21:36:12.801Z,92929.97
2022-09-10T21:37:44.525Z,92931.56
2022-09-10T21:39:16.856Z,92929.25
2022-09-10T21:40:54.490Z,92925.34
2022-09-10T21:42:26.527Z,92918.69
2022-09-10T21:43:58.763Z,92929.19
2022-09-10T21:45:30.404Z,92930.31
2022-09-10T21:47:02.503Z,92931.09
2022-09-10T21:48:36.490Z,92924.78
2022-09-10T21:50:08.341Z,92920.13
2022-09-10T21:51:40.139Z,92920.84
2022-09-10T21:53:11.833Z,92938.38
2022-09-10T21:54:43.369Z,92927.03
2022-09-10T21:56:15.639Z,92937.56
2022-09-10T21:57:47.725Z,92925.47
2022-09-10T21:59:20.509Z,92935.22
2022-09-10T22:00:52.247Z,92934.47
2022-09-10T22:02:24.527Z,92925.78
2022-09-10T22:03:56.905Z,92926.84
2022-09-10T22:05:28.834Z,92929.06
2022-09-10T22:07:00.385Z,92931.38
2022-09-10T22:08:33.381Z,92932.91
2022-09-10T22:10:07.073Z,92922.81
2022-09-10T22:11:40.744Z,92938.41
2022-09-10T22:13:12.274Z,92932.16
2022-09-10T22:14:44.151Z,92927.03
2022-09-10T22:16:16.370Z,92931.97
2022-09-10T22:17:48.393Z,92935.81
2022-09-10T22:19:21.806Z,92935.38
2022-09-10T22:21:01.190Z,92926.34
2022-09-10T22:22:33.087Z,92932.13
2022-09-10T22:24:06.544Z,92939.09
2022-09-10T22:25:38.041Z,92939.38
2022-09-10T22:27:09.561Z,92937.81
2022-09-10T22:28:41.488Z,92939.78
2022-09-10T22:30:13.263Z,92940.41
2022-09-10T22:31:44.960Z,92945.44
2022-09-10T22:33:17.817Z,92947.03
2022-09-10T22:34:49.359Z,92943.06
2022-09-10T22:36:23.621Z,92939.16
2022-09-10T22:37:56.379Z,92947.25
2022-09-10T22:39:29.780Z,92940.94
2022-09-10T22:41:04.802Z,92944.41
2022-09-10T22:42:36.334Z,92947.78
2022-09-10T22:44:08.129Z,92955.84
2022-09-10T22:45:40.180Z,92957.72
2022-09-10T22:47:11.773Z,92954.16
2022-09-10T22:48:43.545Z,92950.19
2022-09-10T22:50:15.466Z,92943.09
2022-09-10T22:51:47.126Z,92943.78
2022-09-10T22:53:18.784Z,92939.06
2022-09-10T22:54:50.416Z,92941.28
2022-09-10T22:56:26.333Z,92943.56
2022-09-10T22:57:57.897Z,92940.84